Georgetown, South Carolina
Current Conditions -  °F | °C
As of 5:35 AM on Thursday 29 Jan 2015 (Local Time) from KGGE Reporting Station
Clear Clear  
Wind Chill: 27°   Ceiling: Unl
Heat Index: 27°   Visibility: 10mi
Dew Point: 27°   Wind: 0mph
Humidity: 100%   Direction: NA
Pressure: 30.34"   Gusts: NA
Location:  33.37°N, 79.28°W
Report Text: KGGE 291035Z AUTO 00000KT 10SM CLR M03/M03 A3034 RMK AO2
Loading
Personal Weather Stations






























Interactive Weather Map New forecast layout! Learn more

10-Day Weather Forecast

Advertisements
Track Severe Weather on mobile